sensor_id;sensor_type;location;lat;lon;timestamp;pressure;altitude;pressure_sealevel;temperature;humidity
70198;BME280;57582;-34.876;138.628;2023-04-01T00:02:21;101708;;;16.84;51.62
70198;BME280;57582;-34.876;138.628;2023-04-01T00:05:22;101705;;;16.90;50.89
70198;BME280;57582;-34.876;138.628;2023-04-01T00:08:21;101706;;;17.04;50.70
70198;BME280;57582;-34.876;138.628;2023-04-01T00:11:21;101700;;;17.13;49.59
70198;BME280;57582;-34.876;138.628;2023-04-01T00:14:21;101702;;;17.26;50.26
70198;BME280;57582;-34.876;138.628;2023-04-01T00:17:22;101692;;;17.33;49.38
70198;BME280;57582;-34.876;138.628;2023-04-01T00:20:21;101687;;;17.47;48.08
70198;BME280;57582;-34.876;138.628;2023-04-01T00:23:21;101691;;;17.69;48.62
70198;BME280;57582;-34.876;138.628;2023-04-01T00:26:21;101692;;;17.96;48.64
70198;BME280;57582;-34.876;138.628;2023-04-01T00:29:22;101692;;;17.76;47.43
70198;BME280;57582;-34.876;138.628;2023-04-01T00:32:21;101704;;;17.64;48.50
70198;BME280;57582;-34.876;138.628;2023-04-01T00:35:21;101699;;;17.55;47.53
70198;BME280;57582;-34.876;138.628;2023-04-01T00:38:21;101709;;;17.77;49.07
70198;BME280;57582;-34.876;138.628;2023-04-01T00:41:21;101697;;;17.97;47.66
70198;BME280;57582;-34.876;138.628;2023-04-01T00:44:22;101701;;;17.54;48.14
70198;BME280;57582;-34.876;138.628;2023-04-01T00:47:21;101695;;;17.70;47.82
70198;BME280;57582;-34.876;138.628;2023-04-01T00:50:22;101699;;;17.50;48.42
70198;BME280;57582;-34.876;138.628;2023-04-01T00:53:21;101697;;;17.47;48.08
70198;BME280;57582;-34.876;138.628;2023-04-01T00:56:22;101680;;;17.29;48.13
70198;BME280;57582;-34.876;138.628;2023-04-01T00:59:23;101685;;;17.17;49.64
70198;BME280;57582;-34.876;138.628;2023-04-01T01:02:21;101689;;;17.21;49.37
70198;BME280;57582;-34.876;138.628;2023-04-01T01:05:25;101696;;;17.60;49.19
70198;BME280;57582;-34.876;138.628;2023-04-01T01:08:24;101702;;;17.85;49.05
70198;BME280;57582;-34.876;138.628;2023-04-01T01:11:24;101686;;;18.09;47.34
70198;BME280;57582;-34.876;138.628;2023-04-01T01:14:25;101682;;;18.20;46.69
70198;BME280;57582;-34.876;138.628;2023-04-01T01:17:25;101687;;;17.80;46.58
70198;BME280;57582;-34.876;138.628;2023-04-01T01:38:23;101679;;;18.65;46.31
70198;BME280;57582;-34.876;138.628;2023-04-01T01:41:21;101687;;;18.52;45.13
70198;BME280;57582;-34.876;138.628;2023-04-01T01:44:21;101679;;;18.60;46.48
70198;BME280;57582;-34.876;138.628;2023-04-01T01:47:21;101677;;;19.01;45.01
70198;BME280;57582;-34.876;138.628;2023-04-01T01:50:21;101640;;;19.38;44.91
70198;BME280;57582;-34.876;138.628;2023-04-01T01:53:22;101652;;;19.86;41.97
70198;BME280;57582;-34.876;138.628;2023-04-01T01:56:22;101650;;;19.03;43.64
70198;BME280;57582;-34.876;138.628;2023-04-01T01:59:21;101663;;;19.08;44.37
70198;BME280;57582;-34.876;138.628;2023-04-01T02:02:21;101655;;;18.59;43.98
70198;BME280;57582;-34.876;138.628;2023-04-01T02:05:23;101652;;;18.24;44.10
70198;BME280;57582;-34.876;138.628;2023-04-01T02:08:25;101656;;;18.15;44.74
70198;BME280;57582;-34.876;138.628;2023-04-01T02:11:30;101653;;;18.04;44.93
70198;BME280;57582;-34.876;138.628;2023-04-01T02:14:23;101649;;;18.45;44.63
70198;BME280;57582;-34.876;138.628;2023-04-01T02:17:23;101641;;;18.85;44.89
70198;BME280;57582;-34.876;138.628;2023-04-01T02:20:21;101635;;;18.94;43.62
70198;BME280;57582;-34.876;138.628;2023-04-01T02:23:21;101640;;;18.90;42.86
70198;BME280;57582;-34.876;138.628;2023-04-01T02:26:21;101639;;;19.37;43.13
70198;BME280;57582;-34.876;138.628;2023-04-01T02:29:23;101631;;;19.60;41.92
70198;BME280;57582;-34.876;138.628;2023-04-01T02:32:21;101620;;;19.80;42.39
70198;BME280;57582;-34.876;138.628;2023-04-01T02:35:21;101629;;;19.48;44.29
70198;BME280;57582;-34.876;138.628;2023-04-01T02:38:21;101624;;;19.48;44.03
70198;BME280;57582;-34.876;138.628;2023-04-01T02:41:22;101628;;;19.50;42.25
70198;BME280;57582;-34.876;138.628;2023-04-01T02:44:21;101616;;;19.64;40.65
70198;BME280;57582;-34.876;138.628;2023-04-01T02:47:21;101617;;;19.78;41.08
70198;BME280;57582;-34.876;138.628;2023-04-01T02:50:21;101614;;;19.94;43.85
70198;BME280;57582;-34.876;138.628;2023-04-01T02:53:22;101609;;;20.28;41.99
70198;BME280;57582;-34.876;138.628;2023-04-01T02:56:21;101606;;;20.25;40.98
70198;BME280;57582;-34.876;138.628;2023-04-01T02:59:21;101613;;;20.52;41.17
70198;BME280;57582;-34.876;138.628;2023-04-01T03:02:21;101610;;;20.51;39.46
70198;BME280;57582;-34.876;138.628;2023-04-01T03:05:22;101596;;;20.39;39.87
70198;BME280;57582;-34.876;138.628;2023-04-01T03:08:21;101598;;;20.47;38.81
70198;BME280;57582;-34.876;138.628;2023-04-01T03:11:21;101594;;;20.04;39.76
70198;BME280;57582;-34.876;138.628;2023-04-01T03:14:21;101589;;;19.95;41.63
70198;BME280;57582;-34.876;138.628;2023-04-01T03:17:22;101571;;;20.09;40.57
70198;BME280;57582;-34.876;138.628;2023-04-01T03:20:21;101577;;;20.61;38.84
70198;BME280;57582;-34.876;138.628;2023-04-01T03:23:21;101573;;;20.40;38.70
70198;BME280;57582;-34.876;138.628;2023-04-01T03:26:21;101583;;;20.43;38.59
70198;BME280;57582;-34.876;138.628;2023-04-01T03:29:22;101571;;;20.17;39.15
70198;BME280;57582;-34.876;138.628;2023-04-01T03:32:21;101569;;;19.75;39.90
70198;BME280;57582;-34.876;138.628;2023-04-01T03:35:21;101572;;;19.51;40.37
70198;BME280;57582;-34.876;138.628;2023-04-01T03:38:21;101568;;;19.76;40.40
70198;BME280;57582;-34.876;138.628;2023-04-01T03:41:21;101560;;;20.04;38.79
70198;BME280;57582;-34.876;138.628;2023-04-01T03:44:21;101565;;;20.34;39.39
70198;BME280;57582;-34.876;138.628;2023-04-01T03:47:21;101554;;;20.50;39.16
70198;BME280;57582;-34.876;138.628;2023-04-01T03:50:21;101559;;;20.43;38.96
70198;BME280;57582;-34.876;138.628;2023-04-01T03:53:22;101546;;;20.40;38.92
70198;BME280;57582;-34.876;138.628;2023-04-01T03:56:21;101553;;;20.00;38.64
70198;BME280;57582;-34.876;138.628;2023-04-01T03:59:21;101554;;;20.37;39.47
70198;BME280;57582;-34.876;138.628;2023-04-01T04:02:21;101545;;;20.79;37.59
70198;BME280;57582;-34.876;138.628;2023-04-01T04:05:23;101540;;;20.97;35.30
70198;BME280;57582;-34.876;138.628;2023-04-01T04:08:21;101530;;;20.98;35.37
70198;BME280;57582;-34.876;138.628;2023-04-01T04:11:22;101524;;;21.30;35.75
70198;BME280;57582;-34.876;138.628;2023-04-01T04:14:22;101528;;;21.42;35.30
70198;BME280;57582;-34.876;138.628;2023-04-01T04:17:22;101520;;;21.34;34.61
70198;BME280;57582;-34.876;138.628;2023-04-01T04:20:21;101511;;;21.17;36.05
70198;BME280;57582;-34.876;138.628;2023-04-01T04:23:21;101518;;;20.74;35.98
70198;BME280;57582;-34.876;138.628;2023-04-01T04:26:21;101525;;;20.22;36.70
70198;BME280;57582;-34.876;138.628;2023-04-01T04:29:21;101513;;;19.92;37.96
70198;BME280;57582;-34.876;138.628;2023-04-01T04:32:22;101515;;;20.10;38.90
70198;BME280;57582;-34.876;138.628;2023-04-01T04:35:21;101509;;;20.13;38.72
70198;BME280;57582;-34.876;138.628;2023-04-01T04:38:21;101513;;;20.17;38.14
70198;BME280;57582;-34.876;138.628;2023-04-01T04:41:23;101506;;;20.14;37.99
70198;BME280;57582;-34.876;138.628;2023-04-01T04:44:22;101509;;;20.15;38.77
70198;BME280;57582;-34.876;138.628;2023-04-01T04:47:21;101509;;;20.13;38.58
70198;BME280;57582;-34.876;138.628;2023-04-01T04:50:21;101505;;;20.31;38.00
70198;BME280;57582;-34.876;138.628;2023-04-01T04:53:22;101509;;;20.46;38.49
70198;BME280;57582;-34.876;138.628;2023-04-01T04:56:21;101507;;;20.64;38.69
70198;BME280;57582;-34.876;138.628;2023-04-01T04:59:21;101509;;;20.83;38.54
70198;BME280;57582;-34.876;138.628;2023-04-01T05:02:21;101502;;;20.82;37.20
70198;BME280;57582;-34.876;138.628;2023-04-01T05:05:22;101497;;;20.76;37.27
70198;BME280;57582;-34.876;138.628;2023-04-01T05:08:21;101501;;;20.67;37.12
70198;BME280;57582;-34.876;138.628;2023-04-01T05:11:21;101500;;;20.73;36.57
70198;BME280;57582;-34.876;138.628;2023-04-01T05:14:21;101502;;;20.65;37.91
70198;BME280;57582;-34.876;138.628;2023-04-01T05:17:22;101495;;;20.70;39.58
70198;BME280;57582;-34.876;138.628;2023-04-01T05:20:21;101498;;;20.94;37.73
70198;BME280;57582;-34.876;138.628;2023-04-01T05:23:22;101498;;;20.86;37.45
70198;BME280;57582;-34.876;138.628;2023-04-01T05:26:21;101501;;;20.77;36.50
70198;BME280;57582;-34.876;138.628;2023-04-01T05:29:22;101497;;;20.73;35.59
70198;BME280;57582;-34.876;138.628;2023-04-01T05:32:21;101492;;;20.41;35.96
70198;BME280;57582;-34.876;138.628;2023-04-01T05:35:21;101490;;;20.46;37.17
70198;BME280;57582;-34.876;138.628;2023-04-01T05:38:21;101492;;;20.29;38.16
70198;BME280;57582;-34.876;138.628;2023-04-01T05:41:22;101502;;;20.35;38.61
70198;BME280;57582;-34.876;138.628;2023-04-01T05:44:21;101489;;;20.34;38.40
70198;BME280;57582;-34.876;138.628;2023-04-01T05:47:22;101499;;;20.32;37.21
70198;BME280;57582;-34.876;138.628;2023-04-01T05:50:21;101493;;;20.04;37.63
70198;BME280;57582;-34.876;138.628;2023-04-01T05:53:22;101499;;;19.94;38.07
70198;BME280;57582;-34.876;138.628;2023-04-01T05:56:22;101501;;;19.95;37.66
70198;BME280;57582;-34.876;138.628;2023-04-01T05:59:21;101501;;;19.93;38.01
70198;BME280;57582;-34.876;138.628;2023-04-01T06:02:21;101493;;;20.16;38.37
70198;BME280;57582;-34.876;138.628;2023-04-01T06:05:24;101489;;;20.50;38.09
70198;BME280;57582;-34.876;138.628;2023-04-01T06:08:21;101501;;;20.67;36.71
70198;BME280;57582;-34.876;138.628;2023-04-01T06:32:29;101484;;;20.08;38.93
70198;BME280;57582;-34.876;138.628;2023-04-01T06:41:33;101487;;;20.07;38.75
70198;BME280;57582;-34.876;138.628;2023-04-01T06:53:25;101489;;;20.21;37.83
70198;BME280;57582;-34.876;138.628;2023-04-01T06:56:22;101477;;;20.21;37.60
70198;BME280;57582;-34.876;138.628;2023-04-01T06:59:22;101486;;;20.12;37.97
70198;BME280;57582;-34.876;138.628;2023-04-01T07:02:24;101494;;;20.09;38.58
70198;BME280;57582;-34.876;138.628;2023-04-01T07:05:22;101498;;;19.98;38.25
70198;BME280;57582;-34.876;138.628;2023-04-01T07:08:23;101462;;;19.51;38.21
70198;BME280;57582;-34.876;138.628;2023-04-01T07:11:24;101509;;;19.56;38.48
70198;BME280;57582;-34.876;138.628;2023-04-01T07:14:30;101503;;;19.46;38.89
70198;BME280;57582;-34.876;138.628;2023-04-01T07:17:23;101504;;;19.28;39.55
70198;BME280;57582;-34.876;138.628;2023-04-01T07:20:23;101509;;;19.31;39.95
70198;BME280;57582;-34.876;138.628;2023-04-01T07:23:23;101511;;;19.29;39.17
70198;BME280;57582;-34.876;138.628;2023-04-01T07:26:23;101512;;;19.17;39.32
70198;BME280;57582;-34.876;138.628;2023-04-01T07:29:23;101508;;;19.16;39.26
70198;BME280;57582;-34.876;138.628;2023-04-01T07:35:24;101520;;;19.21;38.21
70198;BME280;57582;-34.876;138.628;2023-04-01T07:41:32;101520;;;19.23;38.04
70198;BME280;57582;-34.876;138.628;2023-04-01T07:50:25;101537;;;19.53;38.53
70198;BME280;57582;-34.876;138.628;2023-04-01T07:56:24;101545;;;19.30;38.48
70198;BME280;57582;-34.876;138.628;2023-04-01T08:11:25;101550;;;19.28;38.77
70198;BME280;57582;-34.876;138.628;2023-04-01T08:17:28;101561;;;19.12;38.67
70198;BME280;57582;-34.876;138.628;2023-04-01T08:20:39;101568;;;18.83;38.25
70198;BME280;57582;-34.876;138.628;2023-04-01T08:23:24;101562;;;18.67;38.89
70198;BME280;57582;-34.876;138.628;2023-04-01T08:29:36;101577;;;18.41;39.61
70198;BME280;57582;-34.876;138.628;2023-04-01T08:32:23;101574;;;18.36;39.88
70198;BME280;57582;-34.876;138.628;2023-04-01T08:35:30;101576;;;18.34;40.20
70198;BME280;57582;-34.876;138.628;2023-04-01T08:44:32;101586;;;18.26;40.25
70198;BME280;57582;-34.876;138.628;2023-04-01T08:47:40;101583;;;18.25;40.44
70198;BME280;57582;-34.876;138.628;2023-04-01T08:50:27;101589;;;18.19;40.28
70198;BME280;57582;-34.876;138.628;2023-04-01T09:02:25;101601;;;18.02;40.40
70198;BME280;57582;-34.876;138.628;2023-04-01T09:08:27;101611;;;18.03;41.86
70198;BME280;57582;-34.876;138.628;2023-04-01T09:17:35;101605;;;18.24;41.50
70198;BME280;57582;-34.876;138.628;2023-04-01T09:23:29;101606;;;18.64;40.91
70198;BME280;57582;-34.876;138.628;2023-04-01T09:29:27;101615;;;18.90;40.99
70198;BME280;57582;-34.876;138.628;2023-04-01T09:35:36;101622;;;18.91;41.45
70198;BME280;57582;-34.876;138.628;2023-04-01T09:41:28;101629;;;18.81;42.20
70198;BME280;57582;-34.876;138.628;2023-04-01T09:44:23;101623;;;18.82;42.37
70198;BME280;57582;-34.876;138.628;2023-04-01T09:47:27;101634;;;18.82;42.57
70198;BME280;57582;-34.876;138.628;2023-04-01T10:02:31;101652;;;18.65;43.36
70198;BME280;57582;-34.876;138.628;2023-04-01T10:23:27;101665;;;18.38;44.57
70198;BME280;57582;-34.876;138.628;2023-04-01T10:56:32;101680;;;17.66;46.73
70198;BME280;57582;-34.876;138.628;2023-04-01T11:26:32;101690;;;17.15;48.80
70198;BME280;57582;-34.876;138.628;2023-04-01T11:41:41;101693;;;17.09;49.52
70198;BME280;57582;-34.876;138.628;2023-04-01T11:44:23;101688;;;17.12;49.19
70198;BME280;57582;-34.876;138.628;2023-04-01T11:47:25;101691;;;17.14;49.15
70198;BME280;57582;-34.876;138.628;2023-04-01T12:14:27;101695;;;17.07;50.22
70198;BME280;57582;-34.876;138.628;2023-04-01T12:20:36;101691;;;16.95;50.95
70198;BME280;57582;-34.876;138.628;2023-04-01T12:32:34;101690;;;17.37;50.12
70198;BME280;57582;-34.876;138.628;2023-04-01T12:41:46;101691;;;17.76;49.00
70198;BME280;57582;-34.876;138.628;2023-04-01T12:59:25;101689;;;16.84;51.16
70198;BME280;57582;-34.876;138.628;2023-04-01T13:29:23;101676;;;15.95;54.08
70198;BME280;57582;-34.876;138.628;2023-04-01T13:32:33;101666;;;16.23;53.25
70198;BME280;57582;-34.876;138.628;2023-04-01T13:41:31;101670;;;16.79;51.44
70198;BME280;57582;-34.876;138.628;2023-04-01T13:44:26;101659;;;16.82;51.35
70198;BME280;57582;-34.876;138.628;2023-04-01T13:56:33;101648;;;17.03;50.97
70198;BME280;57582;-34.876;138.628;2023-04-01T13:59:40;101646;;;16.99;50.95
70198;BME280;57582;-34.876;138.628;2023-04-01T14:14:29;101632;;;17.02;50.40
70198;BME280;57582;-34.876;138.628;2023-04-01T14:20:27;101630;;;16.86;51.08
70198;BME280;57582;-34.876;138.628;2023-04-01T14:26:25;101627;;;16.76;51.65
70198;BME280;57582;-34.876;138.628;2023-04-01T14:44:24;101639;;;15.47;55.64
70198;BME280;57582;-34.876;138.628;2023-04-01T14:50:24;101632;;;15.39;55.58
70198;BME280;57582;-34.876;138.628;2023-04-01T15:08:26;101617;;;15.99;54.32
70198;BME280;57582;-34.876;138.628;2023-04-01T15:11:26;101628;;;16.09;54.08
70198;BME280;57582;-34.876;138.628;2023-04-01T15:14:25;101622;;;16.08;54.30
70198;BME280;57582;-34.876;138.628;2023-04-01T15:17:43;101613;;;16.10;54.21
70198;BME280;57582;-34.876;138.628;2023-04-01T15:20:28;101608;;;16.07;54.25
70198;BME280;57582;-34.876;138.628;2023-04-01T15:26:31;101603;;;16.07;53.89
70198;BME280;57582;-34.876;138.628;2023-04-01T15:41:24;101580;;;15.91;54.06
70198;BME280;57582;-34.876;138.628;2023-04-01T15:50:44;101578;;;14.59;57.60
70198;BME280;57582;-34.876;138.628;2023-04-01T15:59:37;101579;;;14.37;57.99
70198;BME280;57582;-34.876;138.628;2023-04-01T16:02:31;101571;;;14.36;58.22
70198;BME280;57582;-34.876;138.628;2023-04-01T16:05:25;101577;;;14.41;57.74
70198;BME280;57582;-34.876;138.628;2023-04-01T16:08:34;101575;;;14.43;57.57
70198;BME280;57582;-34.876;138.628;2023-04-01T16:20:24;101561;;;14.57;56.92
70198;BME280;57582;-34.876;138.628;2023-04-01T16:23:24;101563;;;14.34;57.46
70198;BME280;57582;-34.876;138.628;2023-04-01T16:26:26;101560;;;14.00;58.48
70198;BME280;57582;-34.876;138.628;2023-04-01T16:29:35;101548;;;14.12;58.01
70198;BME280;57582;-34.876;138.628;2023-04-01T16:35:25;101547;;;14.21;57.45
70198;BME280;57582;-34.876;138.628;2023-04-01T16:41:26;101536;;;13.81;58.14
70198;BME280;57582;-34.876;138.628;2023-04-01T16:44:23;101534;;;13.59;58.70
70198;BME280;57582;-34.876;138.628;2023-04-01T16:47:23;101534;;;13.70;58.17
70198;BME280;57582;-34.876;138.628;2023-04-01T16:50:24;101526;;;13.70;57.89
70198;BME280;57582;-34.876;138.628;2023-04-01T16:56:23;101522;;;13.71;57.72
70198;BME280;57582;-34.876;138.628;2023-04-01T16:59:24;101525;;;13.40;58.11
70198;BME280;57582;-34.876;138.628;2023-04-01T17:02:23;101511;;;13.48;57.76
70198;BME280;57582;-34.876;138.628;2023-04-01T17:05:35;101518;;;13.49;57.68
70198;BME280;57582;-34.876;138.628;2023-04-01T17:08:27;101518;;;13.59;57.36
70198;BME280;57582;-34.876;138.628;2023-04-01T17:11:42;101516;;;13.38;57.50
70198;BME280;57582;-34.876;138.628;2023-04-01T17:17:27;101500;;;13.46;57.31
70198;BME280;57582;-34.876;138.628;2023-04-01T17:20:31;101502;;;13.09;58.17
70198;BME280;57582;-34.876;138.628;2023-04-01T17:23:33;101495;;;13.02;58.41
70198;BME280;57582;-34.876;138.628;2023-04-01T17:26:26;101492;;;13.05;58.26
70198;BME280;57582;-34.876;138.628;2023-04-01T17:35:27;101479;;;13.47;57.23
70198;BME280;57582;-34.876;138.628;2023-04-01T17:38:32;101476;;;13.46;57.03
70198;BME280;57582;-34.876;138.628;2023-04-01T17:41:28;101478;;;13.61;56.59
70198;BME280;57582;-34.876;138.628;2023-04-01T17:44:29;101480;;;13.57;56.65
70198;BME280;57582;-34.876;138.628;2023-04-01T17:50:23;101475;;;13.59;56.44
70198;BME280;57582;-34.876;138.628;2023-04-01T17:53:33;101474;;;13.63;56.34
70198;BME280;57582;-34.876;138.628;2023-04-01T17:56:30;101472;;;13.70;55.90
70198;BME280;57582;-34.876;138.628;2023-04-01T17:59:26;101466;;;13.39;56.55
70198;BME280;57582;-34.876;138.628;2023-04-01T18:05:25;101465;;;13.27;56.98
70198;BME280;57582;-34.876;138.628;2023-04-01T18:08:26;101463;;;13.31;56.57
70198;BME280;57582;-34.876;138.628;2023-04-01T18:11:26;101459;;;13.29;56.78
70198;BME280;57582;-34.876;138.628;2023-04-01T18:17:25;101467;;;13.27;56.56
70198;BME280;57582;-34.876;138.628;2023-04-01T18:26:26;101464;;;12.86;57.48
70198;BME280;57582;-34.876;138.628;2023-04-01T18:29:31;101464;;;12.96;57.23
70198;BME280;57582;-34.876;138.628;2023-04-01T18:44:42;101462;;;13.03;56.76
70198;BME280;57582;-34.876;138.628;2023-04-01T18:54:13;101467;;;13.17;55.90
70198;BME280;57582;-34.876;138.628;2023-04-01T18:56:27;101463;;;13.23;56.11
70198;BME280;57582;-34.876;138.628;2023-04-01T18:59:25;101457;;;13.35;55.75
70198;BME280;57582;-34.876;138.628;2023-04-01T19:02:40;101465;;;13.48;55.49
70198;BME280;57582;-34.876;138.628;2023-04-01T19:05:29;101470;;;13.64;55.03
70198;BME280;57582;-34.876;138.628;2023-04-01T19:08:39;101463;;;13.78;54.83
70198;BME280;57582;-34.876;138.628;2023-04-01T19:11:29;101466;;;13.92;54.42
70198;BME280;57582;-34.876;138.628;2023-04-01T19:20:26;101464;;;14.14;53.27
70198;BME280;57582;-34.876;138.628;2023-04-01T19:26:26;101463;;;14.25;53.08
70198;BME280;57582;-34.876;138.628;2023-04-01T19:35:26;101464;;;13.76;54.17
70198;BME280;57582;-34.876;138.628;2023-04-01T19:38:26;101462;;;13.46;54.95
70198;BME280;57582;-34.876;138.628;2023-04-01T19:41:27;101467;;;13.41;55.28
70198;BME280;57582;-34.876;138.628;2023-04-01T19:56:23;101481;;;13.69;54.67
70198;BME280;57582;-34.876;138.628;2023-04-01T19:59:28;101483;;;13.65;54.71
70198;BME280;57582;-34.876;138.628;2023-04-01T20:05:33;101494;;;13.64;54.90
70198;BME280;57582;-34.876;138.628;2023-04-01T20:17:24;101484;;;13.46;55.26
70198;BME280;57582;-34.876;138.628;2023-04-01T20:20:24;101497;;;12.77;56.94
70198;BME280;57582;-34.876;138.628;2023-04-01T20:26:24;101491;;;12.81;56.99
70198;BME280;57582;-34.876;138.628;2023-04-01T20:29:34;101490;;;12.94;56.76
70198;BME280;57582;-34.876;138.628;2023-04-01T20:38:32;101501;;;13.19;57.04
70198;BME280;57582;-34.876;138.628;2023-04-01T20:41:25;101501;;;13.29;55.86
70198;BME280;57582;-34.876;138.628;2023-04-01T20:44:41;101497;;;13.14;56.23
70198;BME280;57582;-34.876;138.628;2023-04-01T20:59:54;101512;;;12.60;57.22
70198;BME280;57582;-34.876;138.628;2023-04-01T21:05:27;101522;;;12.39;58.25
70198;BME280;57582;-34.876;138.628;2023-04-01T21:11:34;101519;;;12.21;58.70
70198;BME280;57582;-34.876;138.628;2023-04-01T21:47:29;101525;;;12.99;56.77
70198;BME280;57582;-34.876;138.628;2023-04-01T21:50:32;101533;;;12.90;56.90
70198;BME280;57582;-34.876;138.628;2023-04-01T21:56:28;101540;;;13.17;56.52
70198;BME280;57582;-34.876;138.628;2023-04-01T22:02:33;101543;;;13.43;55.99
70198;BME280;57582;-34.876;138.628;2023-04-01T22:05:39;101530;;;13.63;55.92
70198;BME280;57582;-34.876;138.628;2023-04-01T22:08:28;101521;;;13.93;54.89
70198;BME280;57582;-34.876;138.628;2023-04-01T22:14:39;101538;;;14.26;53.78
70198;BME280;57582;-34.876;138.628;2023-04-01T22:20:41;101539;;;14.36;53.19
70198;BME280;57582;-34.876;138.628;2023-04-01T22:23:28;101519;;;14.43;52.77
70198;BME280;57582;-34.876;138.628;2023-04-01T22:26:25;101541;;;14.66;52.65
70198;BME280;57582;-34.876;138.628;2023-04-01T22:32:27;101552;;;14.66;52.44
70198;BME280;57582;-34.876;138.628;2023-04-01T22:38:28;101544;;;14.45;52.58
70198;BME280;57582;-34.876;138.628;2023-04-01T22:44:31;101556;;;14.49;53.06
70198;BME280;57582;-34.876;138.628;2023-04-01T22:47:33;101559;;;14.51;52.88
70198;BME280;57582;-34.876;138.628;2023-04-01T22:50:30;101558;;;14.34;53.52
70198;BME280;57582;-34.876;138.628;2023-04-01T22:56:27;101562;;;14.45;53.91
70198;BME280;57582;-34.876;138.628;2023-04-01T23:05:23;101571;;;14.53;53.62
70198;BME280;57582;-34.876;138.628;2023-04-01T23:08:29;101570;;;14.59;53.44
70198;BME280;57582;-34.876;138.628;2023-04-01T23:20:44;101582;;;14.97;53.13
70198;BME280;57582;-34.876;138.628;2023-04-01T23:29:24;101578;;;15.24;52.08
70198;BME280;57582;-34.876;138.628;2023-04-01T23:32:24;101574;;;15.26;51.88
70198;BME280;57582;-34.876;138.628;2023-04-01T23:35:23;101583;;;15.15;52.26
70198;BME280;57582;-34.876;138.628;2023-04-01T23:38:24;101576;;;15.26;52.03
70198;BME280;57582;-34.876;138.628;2023-04-01T23:41:26;101582;;;15.46;51.25
70198;BME280;57582;-34.876;138.628;2023-04-01T23:44:24;101576;;;15.75;51.05
70198;BME280;57582;-34.876;138.628;2023-04-01T23:47:30;101579;;;15.81;50.68
70198;BME280;57582;-34.876;138.628;2023-04-01T23:50:23;101580;;;15.96;49.84
70198;BME280;57582;-34.876;138.628;2023-04-01T23:53:25;101582;;;16.07;49.36
70198;BME280;57582;-34.876;138.628;2023-04-01T23:56:24;101576;;;16.04;49.07
70198;BME280;57582;-34.876;138.628;2023-04-01T23:59:26;101583;;;16.05;50.35
